Mishawaka, Indiana
Current Conditions -  °F | °C
As of 2:54 PM on Friday 31 Oct 2014 (Local Time) from KSBN Reporting Station
Overcast Overcast  
Wind Chill: 30°   Ceiling: 2200
Heat Index: 40°   Visibility: 10mi
Dew Point: 37°   Wind: 22mph
Humidity: 89%   Direction: 10°N
Pressure: 30.01"   Gusts: 38mph
Location:  41.66°N, 86.18°W
Report Text: KSBN 311854Z 01019G33KT 10SM BKN022 OVC027 04/03 A3001 RMK AO2 PK WND 01036/1830 SLP166 T00440028
Loading
Personal Weather Stations






























Interactive Weather Map
Tropical Storm Tracking
New forecast layout! Learn more

10-Day Weather Forecast

Advertisements
Track Severe Weather on mobile